Time;durP1;ratioP1;P1;durP2;ratioP2;P2;SDS_P1;SDS_P2;PMS_P1;PMS_P2;Temp;Humidity;BMP_temperature;BMP_pressure;BME280_temperature;BME280_humidity;BME280_pressure;Samples;Min_cycle;Max_cycle;Signal;HPM_P1;HPM_P2
2022/03/21 00:02:24;;;;;;;;;;;;;;;;;;5044611;28;19921;-94
2022/03/21 00:04:51;;;;;;;;;;;;;;;;;;5043918;28;19921;-93
2022/03/21 00:07:18;;;;;;;;;;;;;;;;;;5046137;28;20040;-94
2022/03/21 00:09:44;;;;;;;;;;;;;;;;;;5046586;28;19921;-93
2022/03/21 00:12:13;;;;;;;;;;;;;;;;;;5051974;28;19940;-93
2022/03/21 00:14:41;;;;;;;;;;;;;;;;;;5056339;28;19969;-94
2022/03/21 00:17:07;;;;;;;;;;;;;;;;;;5046360;28;19972;-94
2022/03/21 00:19:34;;;;;;;;;;;;;;;;;;5046182;28;19920;-94
2022/03/21 00:22:01;;;;;;;;;;;;;;;;;;5045328;28;19921;-94
2022/03/21 00:24:27;;;;;;;;;;;;;;;;;;5046352;28;19984;-93
2022/03/21 00:26:53;;;;;;;;;;;;;;;;;;5045417;28;19948;-94
2022/03/21 00:29:20;;;;;;;;;;;;;;;;;;5045749;28;20627;-93
2022/03/21 00:31:46;;;;;;;;;;;;;;;;;;5044932;28;19948;-93
2022/03/21 00:34:12;;;;;;;;;;;;;;;;;;5045793;28;19921;-94
2022/03/21 00:36:38;;;;;;;;;;;;;;;;;;5044597;28;19929;-94
2022/03/21 00:39:04;;;;;;;;;;;;;;;;;;5042843;28;19921;-96
2022/03/21 00:41:32;;;;;;;;;;;;;;;;;;5043877;28;20028;-95
2022/03/21 00:43:59;;;;;;;;;;;;;;;;;;5044573;28;19924;-95
2022/03/21 00:46:26;;;;;;;;;;;;;;;;;;5043760;28;19927;-94
2022/03/21 00:48:52;;;;;;;;;;;;;;;;;;5043154;28;19944;-94
2022/03/21 00:51:18;;;;;;;;;;;;;;;;;;5044742;28;19929;-95
2022/03/21 00:53:44;;;;;;;;;;;;;;;;;;5044828;28;19921;-95
2022/03/21 00:56:11;;;;;;;;;;;;;;;;;;5044243;28;19972;-95
2022/03/21 00:58:37;;;;;;;;;;;;;;;;;;5044814;28;19921;-95
2022/03/21 01:01:03;;;;;;;;;;;;;;;;;;5044360;28;19921;-95
2022/03/21 01:03:29;;;;;;;;;;;;;;;;;;5059689;28;19978;-94
2022/03/21 01:05:55;;;;;;;;;;;;;;;;;;5064414;28;19997;-93
2022/03/21 01:08:22;;;;;;;;;;;;;;;;;;5027131;28;19921;-94
2022/03/21 01:10:48;;;;;;;;;;;;;;;;;;5024978;28;19921;-94
2022/03/21 01:13:18;;;;;;;;;;;;;;;;;;5041737;28;19921;-95
2022/03/21 01:15:44;;;;;;;;;;;;;;;;;;5044813;28;19921;-94
2022/03/21 01:18:11;;;;;;;;;;;;;;;;;;5042887;28;19928;-94
2022/03/21 01:20:37;;;;;;;;;;;;;;;;;;5043661;28;19921;-94
2022/03/21 01:23:03;;;;;;;;;;;;;;;;;;5043150;28;19981;-95
2022/03/21 01:25:30;;;;;;;;;;;;;;;;;;5044235;28;19921;-95
2022/03/21 01:27:56;;;;;;;;;;;;;;;;;;5042940;28;19963;-94
2022/03/21 01:30:22;;;;;;;;;;;;;;;;;;5042135;28;19921;-92
2022/03/21 01:32:48;;;;;;;;;;;;;;;;;;5041889;28;19928;-92
2022/03/21 01:35:15;;;;;;;;;;;;;;;;;;5042336;28;19944;-92
2022/03/21 01:37:41;;;;;;;;;;;;;;;;;;5043469;28;19921;-93
2022/03/21 01:40:07;;;;;;;;;;;;;;;;;;5043522;28;19943;-93
2022/03/21 01:42:36;;;;;;;;;;;;;;;;;;5044137;28;19921;-93
2022/03/21 01:45:02;;;;;;;;;;;;;;;;;;5043531;28;19920;-93
2022/03/21 01:47:29;;;;;;;;;;;;;;;;;;5043819;28;19921;-93
2022/03/21 01:49:55;;;;;;;;;;;;;;;;;;5043968;28;19925;-93
2022/03/21 01:52:21;;;;;;;;;;;;;;;;;;5052933;28;19909;-92
2022/03/21 01:57:31;;;;;;;;;;;;;;;;;;5043941;28;19919;-93
2022/03/21 01:59:58;;;;;;;;;;;;;;;;;;5044220;28;19929;-93
2022/03/21 02:02:24;;;;;;;;;;;;;;;;;;5041524;28;19952;-93
2022/03/21 02:04:50;;;;;;;;;;;;;;;;;;5042319;28;19921;-92
2022/03/21 02:07:17;;;;;;;;;;;;;;;;;;5041337;28;19948;-92
2022/03/21 02:09:43;;;;;;;;;;;;;;;;;;5041487;28;19921;-92
2022/03/21 02:12:09;;;;;;;;;;;;;;;;;;5043098;28;19921;-93
2022/03/21 02:14:39;;;;;;;;;;;;;;;;;;5043988;28;19944;-92
2022/03/21 02:17:05;;;;;;;;;;;;;;;;;;5043234;28;19921;-93
2022/03/21 02:19:32;;;;;;;;;;;;;;;;;;5042102;28;19944;-93
2022/03/21 02:21:58;;;;;;;;;;;;;;;;;;5042219;28;19944;-93
2022/03/21 02:24:24;;;;;;;;;;;;;;;;;;5043006;28;19921;-93
2022/03/21 02:26:50;;;;;;;;;;;;;;;;;;5041922;28;19944;-93
2022/03/21 02:29:16;;;;;;;;;;;;;;;;;;5041470;28;19944;-93
2022/03/21 02:31:43;;;;;;;;;;;;;;;;;;5042521;28;19921;-92
2022/03/21 02:34:09;;;;;;;;;;;;;;;;;;5042579;28;19952;-93
2022/03/21 02:36:35;;;;;;;;;;;;;;;;;;5040590;28;19920;-93
2022/03/21 02:39:01;;;;;;;;;;;;;;;;;;5040135;28;19944;-93
2022/03/21 02:41:28;;;;;;;;;;;;;;;;;;5042237;28;19925;-93
2022/03/21 02:43:54;;;;;;;;;;;;;;;;;;5043607;28;19920;-93
2022/03/21 02:46:20;;;;;;;;;;;;;;;;;;5043626;28;19921;-93
2022/03/21 02:48:46;;;;;;;;;;;;;;;;;;5043124;28;19944;-93
2022/03/21 02:51:13;;;;;;;;;;;;;;;;;;5043084;28;19956;-93
2022/03/21 02:53:39;;;;;;;;;;;;;;;;;;5041251;28;19947;-93
2022/03/21 02:56:05;;;;;;;;;;;;;;;;;;5031917;28;19922;-93
2022/03/21 02:58:31;;;;;;;;;;;;;;;;;;5037319;28;19960;-93
2022/03/21 03:00:57;;;;;;;;;;;;;;;;;;5042683;28;19952;-93
2022/03/21 03:03:24;;;;;;;;;;;;;;;;;;5041949;28;19933;-94
2022/03/21 03:05:50;;;;;;;;;;;;;;;;;;5042471;28;19921;-93
2022/03/21 03:08:16;;;;;;;;;;;;;;;;;;5041002;28;19921;-94
2022/03/21 03:10:42;;;;;;;;;;;;;;;;;;5042427;28;19943;-93
2022/03/21 03:13:09;;;;;;;;;;;;;;;;;;5042608;28;19921;-93
2022/03/21 03:15:35;;;;;;;;;;;;;;;;;;5043144;28;19921;-93
2022/03/21 03:18:02;;;;;;;;;;;;;;;;;;5040146;28;20381;-94
2022/03/21 03:20:28;;;;;;;;;;;;;;;;;;5040135;28;19921;-93
2022/03/21 03:22:54;;;;;;;;;;;;;;;;;;5039232;28;20365;-93
2022/03/21 03:25:20;;;;;;;;;;;;;;;;;;5041363;28;20494;-93
2022/03/21 03:27:46;;;;;;;;;;;;;;;;;;5042881;28;19944;-94
2022/03/21 03:30:13;;;;;;;;;;;;;;;;;;5047123;28;19921;-94
2022/03/21 03:32:40;;;;;;;;;;;;;;;;;;5051550;28;19925;-94
2022/03/21 03:35:06;;;;;;;;;;;;;;;;;;5042001;28;19963;-93
2022/03/21 03:37:32;;;;;;;;;;;;;;;;;;5043024;28;19921;-94
2022/03/21 03:39:59;;;;;;;;;;;;;;;;;;5042474;28;19920;-93
2022/03/21 03:42:25;;;;;;;;;;;;;;;;;;5041892;28;19921;-93
2022/03/21 03:44:51;;;;;;;;;;;;;;;;;;5042498;28;19920;-93
2022/03/21 03:47:17;;;;;;;;;;;;;;;;;;5043857;28;20003;-93
2022/03/21 03:49:44;;;;;;;;;;;;;;;;;;5045179;28;20335;-93
2022/03/21 03:52:10;;;;;;;;;;;;;;;;;;5046132;28;20007;-92
2022/03/21 03:54:36;;;;;;;;;;;;;;;;;;5026334;28;19921;-92
2022/03/21 03:57:02;;;;;;;;;;;;;;;;;;5026374;28;20278;-92
2022/03/21 03:59:28;;;;;;;;;;;;;;;;;;5044681;28;20489;-93
2022/03/21 04:01:55;;;;;;;;;;;;;;;;;;5045343;28;20596;-93
2022/03/21 04:04:21;;;;;;;;;;;;;;;;;;5044960;28;20631;-92
2022/03/21 04:06:47;;;;;;;;;;;;;;;;;;5044952;28;20487;-93
2022/03/21 04:09:13;;;;;;;;;;;;;;;;;;5044177;28;19955;-94
2022/03/21 04:11:40;;;;;;;;;;;;;;;;;;5045597;28;19980;-94
2022/03/21 04:14:06;;;;;;;;;;;;;;;;;;5045092;28;19921;-94
2022/03/21 04:16:32;;;;;;;;;;;;;;;;;;5045890;28;19924;-93
2022/03/21 04:18:58;;;;;;;;;;;;;;;;;;5046019;28;19967;-93
2022/03/21 04:21:25;;;;;;;;;;;;;;;;;;5045450;28;19921;-94
2022/03/21 04:23:51;;;;;;;;;;;;;;;;;;5045238;28;19967;-93
2022/03/21 04:26:17;;;;;;;;;;;;;;;;;;5045112;28;19971;-94
2022/03/21 04:28:43;;;;;;;;;;;;;;;;;;5044810;28;19967;-94
2022/03/21 04:31:10;;;;;;;;;;;;;;;;;;5044491;28;20063;-93
2022/03/21 04:33:36;;;;;;;;;;;;;;;;;;5045596;28;19920;-94
2022/03/21 04:36:02;;;;;;;;;;;;;;;;;;5045521;28;19925;-94
2022/03/21 04:38:28;;;;;;;;;;;;;;;;;;5044365;28;19921;-94
2022/03/21 04:40:55;;;;;;;;;;;;;;;;;;5045029;28;19968;-94
2022/03/21 04:43:21;;;;;;;;;;;;;;;;;;5045241;28;19921;-94
2022/03/21 04:45:47;;;;;;;;;;;;;;;;;;5045910;28;19967;-94
2022/03/21 04:48:14;;;;;;;;;;;;;;;;;;5043218;28;19960;-95
2022/03/21 04:50:40;;;;;;;;;;;;;;;;;;5044815;28;19925;-94
2022/03/21 04:53:08;;;;;;;;;;;;;;;;;;5044913;28;19943;-94
2022/03/21 04:55:34;;;;;;;;;;;;;;;;;;5045577;28;19920;-94
2022/03/21 04:58:01;;;;;;;;;;;;;;;;;;5044170;28;19967;-95
2022/03/21 05:00:27;;;;;;;;;;;;;;;;;;5044720;28;19925;-95
2022/03/21 05:02:53;;;;;;;;;;;;;;;;;;5043593;28;19921;-94
2022/03/21 05:05:19;;;;;;;;;;;;;;;;;;5044488;28;20454;-95
2022/03/21 05:07:46;;;;;;;;;;;;;;;;;;5039919;28;19921;-95
2022/03/21 05:10:14;;;;;;;;;;;;;;;;;;5053653;28;19921;-95
2022/03/21 05:12:40;;;;;;;;;;;;;;;;;;5043183;28;19925;-94
2022/03/21 05:15:06;;;;;;;;;;;;;;;;;;5044593;28;19968;-94
2022/03/21 05:17:33;;;;;;;;;;;;;;;;;;5043802;28;20011;-95
2022/03/21 05:19:59;;;;;;;;;;;;;;;;;;5044415;28;20277;-95
2022/03/21 05:22:25;;;;;;;;;;;;;;;;;;5043809;28;20454;-96
2022/03/21 05:35:55;;;;;;;;;;;;;;;;;;5023783;28;20352;-96
2022/03/21 05:38:22;;;;;;;;;;;;;;;;;;5027803;28;20337;-95
2022/03/21 05:40:48;;;;;;;;;;;;;;;;;;5044030;28;20351;-95
2022/03/21 05:43:15;;;;;;;;;;;;;;;;;;5043518;28;20421;-96
2022/03/21 05:45:41;;;;;;;;;;;;;;;;;;5044203;28;20409;-96
2022/03/21 05:50:51;;;;;;;;;;;;;;;;;;5042923;28;20378;-95
2022/03/21 05:53:17;;;;;;;;;;;;;;;;;;5043788;28;20385;-96
2022/03/21 05:55:45;;;;;;;;;;;;;;;;;;5044603;28;20133;-96
2022/03/21 05:58:12;;;;;;;;;;;;;;;;;;5075893;22;19920;-96
2022/03/21 06:00:38;;;;;;;;;;;;;;;;;;5066267;28;19943;-94
2022/03/21 06:03:07;;;;;;;;;;;;;;;;;;5063738;28;19920;-95
2022/03/21 06:05:34;;;;;;;;;;;;;;;;;;5084012;28;19927;-94
2022/03/21 06:08:01;;;;;;;;;;;;;;;;;;5066774;28;19920;-96
2022/03/21 06:10:27;;;;;;;;;;;;;;;;;;5087834;28;19920;-96
2022/03/21 06:12:58;;;;;;;;;;;;;;;;;;5074126;28;19943;-96
2022/03/21 06:15:24;;;;;;;;;;;;;;;;;;5083997;28;19915;-96
2022/03/21 06:17:52;;;;;;;;;;;;;;;;;;5072092;28;19935;-96
2022/03/21 06:20:18;;;;;;;;;;;;;;;;;;5074695;28;19920;-96
2022/03/21 06:22:44;;;;;;;;;;;;;;;;;;5070867;28;19982;-96
2022/03/21 06:25:11;;;;;;;;;;;;;;;;;;5072272;28;19932;-95
2022/03/21 06:27:37;;;;;;;;;;;;;;;;;;5070314;28;19928;-96
2022/03/21 06:30:03;;;;;;;;;;;;;;;;;;5067125;28;20297;-95
2022/03/21 06:32:29;;;;;;;;;;;;;;;;;;5072122;28;20214;-94
2022/03/21 06:34:56;;;;;;;;;;;;;;;;;;5070176;28;20386;-94
2022/03/21 06:37:22;;;;;;;;;;;;;;;;;;5071648;28;20335;-95
2022/03/21 06:39:48;;;;;;;;;;;;;;;;;;5070277;28;20396;-94
2022/03/21 06:42:14;;;;;;;;;;;;;;;;;;5068149;28;20380;-95
2022/03/21 06:44:41;;;;;;;;;;;;;;;;;;5074520;28;20268;-95
2022/03/21 06:47:07;;;;;;;;;;;;;;;;;;5075222;28;19947;-95
2022/03/21 06:49:33;;;;;;;;;;;;;;;;;;5085096;28;19946;-94
2022/03/21 06:52:02;;;;;;;;;;;;;;;;;;5072491;28;20355;-95
2022/03/21 06:54:28;;;;;;;;;;;;;;;;;;5072590;28;19928;-94
2022/03/21 06:56:55;;;;;;;;;;;;;;;;;;5061792;28;19925;-95
2022/03/21 06:59:21;;;;;;;;;;;;;;;;;;5067983;28;19943;-95
2022/03/21 07:01:47;;;;;;;;;;;;;;;;;;5071310;28;20296;-95
2022/03/21 07:04:13;;;;;;;;;;;;;;;;;;5069115;28;20403;-94
2022/03/21 07:06:40;;;;;;;;;;;;;;;;;;5065857;28;20379;-94
2022/03/21 07:09:06;;;;;;;;;;;;;;;;;;5065634;28;20358;-96
2022/03/21 07:11:34;;;;;;;;;;;;;;;;;;5064304;28;20346;-96
2022/03/21 07:14:01;;;;;;;;;;;;;;;;;;5066223;28;20359;-95
2022/03/21 07:16:27;;;;;;;;;;;;;;;;;;5071472;28;20396;-95
2022/03/21 07:18:53;;;;;;;;;;;;;;;;;;5072194;28;20396;-95
2022/03/21 07:21:19;;;;;;;;;;;;;;;;;;5069199;28;20350;-95
2022/03/21 07:23:46;;;;;;;;;;;;;;;;;;5072667;28;20376;-95
2022/03/21 07:26:13;;;;;;;;;;;;;;;;;;5075007;28;19920;-95
2022/03/21 07:28:39;;;;;;;;;;;;;;;;;;5074370;28;19967;-95
2022/03/21 07:31:05;;;;;;;;;;;;;;;;;;5085158;28;19921;-95
2022/03/21 07:33:32;;;;;;;;;;;;;;;;;;5068247;28;19924;-96
2022/03/21 07:35:58;;;;;;;;;;;;;;;;;;5086168;28;20376;-96
2022/03/21 07:38:24;;;;;;;;;;;;;;;;;;5086976;28;20804;-96
2022/03/21 07:40:51;;;;;;;;;;;;;;;;;;5084242;28;20357;-95
2022/03/21 07:43:17;;;;;;;;;;;;;;;;;;5077674;28;20308;-96
2022/03/21 07:48:27;;;;;;;;;;;;;;;;;;5078390;28;20137;-94
2022/03/21 07:50:55;;;;;;;149.80;70.88;;;;;;;;;;5079279;28;20512;-93
2022/03/21 07:53:22;;;;;;;129.60;60.53;;;;;;;;;;5079710;28;20199;-95
2022/03/21 07:55:48;;;;;;;133.63;61.43;;;;;;;;;;5081942;28;20940;-94
2022/03/21 07:58:15;;;;;;;134.33;62.87;;;;;;;;;;5082330;28;20523;-94
2022/03/21 08:00:42;;;;;;;133.23;61.92;;;;;;;;;;5066602;28;20527;-95
2022/03/21 08:03:09;;;;;;;129.97;60.37;;;;;;;;;;5064117;28;20314;-94
2022/03/21 08:05:35;;;;;;;139.33;59.97;;;;;;;;;;5064526;28;20469;-92
2022/03/21 08:08:03;;;;;;;130.27;59.40;;;;;;;;;;5065476;28;20465;-93
2022/03/21 08:10:30;;;;;;;126.87;60.60;;;;;;;;;;5065065;28;20493;-93
2022/03/21 08:12:57;;;;;;;128.27;60.63;;;;;;;;;;5062950;28;20521;-91
2022/03/21 08:15:23;;;;;;;129.60;60.80;;;;;;;;;;5063149;28;20863;-91
2022/03/21 08:17:51;;;;;;;138.87;60.43;;;;;;;;;;5063753;28;20468;-91
2022/03/21 08:20:18;;;;;;;133.17;60.60;;;;;;;;;;5064755;28;20454;-92
2022/03/21 08:22:47;;;;;;;131.33;60.87;;;;;;;;;;5064787;28;20994;-94
2022/03/21 08:25:15;;;;;;;127.53;60.53;;;;;;;;;;5065406;28;20469;-92
2022/03/21 08:27:43;;;;;;;130.33;61.10;;;;;;;;;;5064590;28;20545;-92
2022/03/21 08:30:10;;;;;;;130.10;61.63;;;;;;;;;;5083991;28;20438;-91
2022/03/21 08:32:36;;;;;;;128.00;60.67;;;;;;;;;;5065932;28;20463;-91
2022/03/21 08:35:03;;;;;;;133.47;61.90;;;;;;;;;;5063807;28;20930;-91
2022/03/21 08:37:29;;;;;;;132.30;62.90;;;;;;;;;;5059255;28;20436;-92
2022/03/21 08:39:56;;;;;;;127.40;59.33;;;;;;;;;;5052035;28;20473;-91
2022/03/21 08:42:23;;;;;;;135.93;61.27;;;;;;;;;;5064215;28;20481;-92
2022/03/21 08:44:50;;;;;;;127.80;60.97;;;;;;;;;;5064684;28;20565;-92
2022/03/21 08:47:17;;;;;;;134.60;62.43;;;;;;;;;;5063707;28;20938;-94
2022/03/21 08:49:44;;;;;;;129.50;61.73;;;;;;;;;;5062233;28;20512;-95
2022/03/21 08:52:10;;;;;;;130.30;61.37;;;;;;;;;;5063006;28;20516;-92
2022/03/21 08:54:37;;;;;;;139.30;62.57;;;;;;;;;;5063002;28;20512;-91
2022/03/21 08:57:04;;;;;;;133.33;62.23;;;;;;;;;;5062570;28;20542;-90
2022/03/21 08:59:32;;;;;;;133.00;62.50;;;;;;;;;;5060589;28;20534;-92
2022/03/21 09:01:59;;;;;;;133.80;62.10;;;;;;;;;;5063130;28;20454;-92
2022/03/21 09:04:25;;;;;;;132.80;59.93;;;;;;;;;;5064712;28;20497;-92
2022/03/21 09:06:52;;;;;;;127.80;59.83;;;;;;;;;;5049302;28;20509;-88
2022/03/21 09:09:18;;;;;;;134.30;60.63;;;;;;;;;;5044839;28;20447;-89
2022/03/21 09:11:45;;;;;;;128.87;60.87;;;;;;;;;;5064362;28;20454;-91
2022/03/21 09:14:12;;;;;;;133.17;61.53;;;;;;;;;;5064156;28;21032;-91
2022/03/21 09:16:42;;;;;;;136.20;61.43;;;;;;;;;;5063834;28;20446;-89
2022/03/21 09:19:08;;;;;;;133.97;62.73;;;;;;;;;;5047374;28;20519;-88
2022/03/21 09:21:35;;;;;;;129.33;60.37;;;;;;;;;;5061111;28;20973;-92
2022/03/21 09:24:02;;;;;;;136.20;63.00;;;;;;;;;;5062154;28;20501;-89
2022/03/21 09:26:28;;;;;;;164.25;65.32;;;;;;;;;;5060633;28;20458;-91
2022/03/21 09:29:02;;;;;;;177.20;65.97;;;;;;;;;;5050032;28;20464;-93
2022/03/21 09:31:29;;;;;;;172.83;64.87;;;;;;;;;;5061206;28;20450;-92
2022/03/21 09:33:57;;;;;;;182.20;66.90;;;;;;;;;;5054834;28;20513;-90
2022/03/21 09:36:23;;;;;;;452.55;104.57;;;;;;;;;;5059639;28;20443;-92
2022/03/21 09:38:50;;;;;;;160.10;65.27;;;;;;;;;;5063467;28;20200;-91
2022/03/21 09:41:23;;;;;;;179.90;67.63;;;;;;;;;;5048078;28;20451;-91
2022/03/21 09:43:51;;;;;;;194.30;68.53;;;;;;;;;;5043120;28;20522;-92
2022/03/21 09:46:18;;;;;;;200.17;67.87;;;;;;;;;;5047721;28;20443;-92
2022/03/21 09:48:46;;;;;;;259.53;73.90;;;;;;;;;;5061708;28;20442;-91
2022/03/21 09:51:17;;;;;;;348.08;84.65;;;;;;;;;;5063636;28;20525;-90
2022/03/21 09:53:43;;;;;;;375.05;90.65;;;;;;;;;;5061523;28;20261;-90
2022/03/21 09:56:10;;;;;;;338.00;84.35;;;;;;;;;;5073660;28;20213;-91
2022/03/21 09:58:37;;;;;;;305.05;78.40;;;;;;;;;;5062519;28;20223;-92
2022/03/21 10:01:03;;;;;;;319.73;82.20;;;;;;;;;;5062867;28;20200;-93
2022/03/21 10:03:30;;;;;;;211.83;71.77;;;;;;;;;;5057860;28;20223;-91
2022/03/21 10:05:56;;;;;;;236.17;73.40;;;;;;;;;;5052062;28;21365;-93
2022/03/21 10:08:26;;;;;;;313.17;81.50;;;;;;;;;;5043019;28;20447;-92
2022/03/21 10:10:53;;;;;;;;;;;;;;;;;;5052526;28;20457;-91
2022/03/21 10:13:19;;;;;;;;;;;;;;;;;;5065037;28;20332;-90
2022/03/21 10:15:45;;;;;;;;;;;;;;;;;;5074058;28;20329;-92
2022/03/21 10:18:11;;;;;;;;;;;;;;;;;;5069893;28;20406;-92
2022/03/21 10:20:37;;;;;;;;;;;;;;;;;;5066342;28;20398;-94
2022/03/21 10:23:04;;;;;;;;;;;;;;;;;;5062778;28;20131;-90
2022/03/21 10:25:31;;;;;;;;;;;;;;;;;;5062273;28;19925;-92
2022/03/21 10:27:58;;;;;;;;;;;;;;;;;;5063247;28;19927;-90
2022/03/21 10:30:24;;;;;;;;;;;;;;;;;;5064095;28;19924;-90
2022/03/21 10:32:50;;;;;;;;;;;;;;;;;;5063072;28;20274;-91
2022/03/21 10:35:16;;;;;;;;;;;;;;;;;;5063483;28;20415;-90
2022/03/21 10:37:43;;;;;;;;;;;;;;;;;;5056758;28;20361;-91
2022/03/21 10:40:09;;;;;;;;;;;;;;;;;;5043054;28;20355;-88
2022/03/21 10:42:35;;;;;;;;;;;;;;;;;;5062637;28;20353;-88
2022/03/21 10:45:03;;;;;;;;;;;;;;;;;;5063197;28;20434;-89
2022/03/21 10:47:29;;;;;;;;;;;;;;;;;;5061426;28;20353;-91
2022/03/21 10:49:56;;;;;;;;;;;;;;;;;;5060743;28;20500;-91
2022/03/21 10:52:22;;;;;;;;;;;;;;;;;;5062408;28;20905;-90
2022/03/21 10:54:48;;;;;;;;;;;;;;;;;;5062356;28;20415;-90
2022/03/21 10:57:15;;;;;;;;;;;;;;;;;;5063891;28;20405;-89
2022/03/21 10:59:41;;;;;;;;;;;;;;;;;;5061856;28;20371;-91
2022/03/21 11:02:07;;;;;;;;;;;;;;;;;;5061592;28;20348;-90
2022/03/21 11:04:33;;;;;;;;;;;;;;;;;;5045034;28;20410;-91
2022/03/21 11:07:00;;;;;;;;;;;;;;;;;;5062820;28;20345;-93
2022/03/21 11:09:26;;;;;;;;;;;;;;;;;;5062401;28;20348;-93
2022/03/21 11:11:52;;;;;;;;;;;;;;;;;;5062188;28;20375;-90
2022/03/21 11:14:18;;;;;;;;;;;;;;;;;;5060121;28;20368;-91
2022/03/21 11:16:45;;;;;;;;;;;;;;;;;;5055446;28;20349;-91
2022/03/21 11:19:11;;;;;;;;;;;;;;;;;;5062830;28;20348;-92
2022/03/21 11:21:37;;;;;;;;;;;;;;;;;;5062451;28;20340;-93
2022/03/21 11:24:03;;;;;;;;;;;;;;;;;;5061170;28;20401;-91
2022/03/21 11:26:32;;;;;;;;;;;;;;;;;;5069335;28;20342;-92
2022/03/21 11:28:59;;;;;;;;;;;;;;;;;;5063022;28;20352;-92
2022/03/21 11:31:25;;;;;;;;;;;;;;;;;;5072634;28;20848;-91
2022/03/21 11:33:51;;;;;;;;;;;;;;;;;;5068700;28;20767;-93
2022/03/21 11:36:18;;;;;;;;;;;;;;;;;;5070420;28;20749;-92
2022/03/21 11:38:45;;;;;;;;;;;;;;;;;;5076894;28;21177;-90
2022/03/21 11:41:11;;;;;;;;;;;;;;;;;;5058101;28;20357;-90
2022/03/21 11:43:37;;;;;;;;;;;;;;;;;;5061472;28;20838;-88
2022/03/21 11:46:03;;;;;;;;;;;;;;;;;;5061153;28;20887;-88
2022/03/21 11:48:30;;;;;;;;;;;;;;;;;;5061622;28;20340;-90
2022/03/21 11:50:56;;;;;;;;;;;;;;;;;;5054120;28;20345;-92
2022/03/21 11:53:22;;;;;;;;;;;;;;;;;;5056691;28;20405;-89
2022/03/21 11:55:48;;;;;;;;;;;;;;;;;;5056638;28;20401;-91
2022/03/21 11:58:15;;;;;;;;;;;;;;;;;;5058530;28;20372;-88
2022/03/21 12:00:41;;;;;;;;;;;;;;;;;;5055750;28;20431;-89
2022/03/21 12:03:07;;;;;;;;;;;;;;;;;;5053662;28;20351;-87
2022/03/21 12:05:33;;;;;;;;;;;;;;;;;;5068668;28;20431;-89
2022/03/21 12:08:00;;;;;;;;;;;;;;;;;;5071585;28;20377;-89
2022/03/21 12:10:26;;;;;;;;;;;;;;;;;;5069576;28;20375;-90
2022/03/21 12:12:52;;;;;;;;;;;;;;;;;;5069658;28;20345;-92
2022/03/21 12:15:18;;;;;;;;;;;;;;;;;;5076360;28;20378;-88
2022/03/21 12:17:45;;;;;;;;;;;;;;;;;;5065580;28;20351;-89
2022/03/21 12:20:11;;;;;;;;;;;;;;;;;;5065296;28;20374;-88
2022/03/21 12:22:39;;;;;;;;;;;;;;;;;;5065809;28;20367;-92
2022/03/21 12:25:06;;;;;;;;;;;;;;;;;;5064834;28;20408;-89
2022/03/21 12:27:32;;;;;;;;;;;;;;;;;;5064885;28;20348;-89
2022/03/21 12:29:58;;;;;;;;;;;;;;;;;;5063454;28;20382;-91
2022/03/21 12:32:25;;;;;;;;;;;;;;;;;;5063734;28;20347;-90
2022/03/21 12:34:51;;;;;;;;;;;;;;;;;;5064889;28;20386;-89
2022/03/21 12:37:17;;;;;;;;;;;;;;;;;;5077879;28;20348;-92
2022/03/21 12:39:43;;;;;;;;;;;;;;;;;;5075444;28;20580;-89
2022/03/21 12:42:10;;;;;;;;;;;;;;;;;;5081565;28;21189;-87
2022/03/21 12:44:36;;;;;;;;;;;;;;;;;;5078721;28;20429;-89
2022/03/21 12:47:02;;;;;;;;;;;;;;;;;;5064853;28;20400;-88
2022/03/21 12:49:28;;;;;;;;;;;;;;;;;;5063280;28;20351;-87
2022/03/21 12:51:55;;;;;;;;;;;;;;;;;;5055229;28;20366;-90
2022/03/21 12:54:21;;;;;;;;;;;;;;;;;;5065235;28;20363;-90
2022/03/21 12:56:47;;;;;;;;;;;;;;;;;;5064935;28;20370;-88
2022/03/21 12:59:13;;;;;;;;;;;;;;;;;;5064810;28;20136;-91
2022/03/21 13:01:40;;;;;;;;;;;;;;;;;;5055465;28;20262;-88
2022/03/21 13:12:16;;;;;;;;;;;;;;;;;;5064029;28;19915;-93
2022/03/21 13:14:42;;;;;;;;;;;;;;;;;;5065312;28;19947;-95
2022/03/21 13:17:10;;;;;;;;;;;;;;;;;;5063952;28;19920;-92
2022/03/21 13:19:38;;;;;;;;;;;;;;;;;;5047191;28;19921;-90
2022/03/21 13:22:05;;;;;;;;;;;;;;;;;;5052756;28;19924;-90
2022/03/21 13:24:31;;;;;;;;;;;;;;;;;;5063514;28;19943;-88
2022/03/21 13:26:58;;;;;;;;;;;;;;;;;;5055349;28;19951;-91
2022/03/21 13:29:24;;;;;;;;;;;;;;;;;;5045969;28;19948;-93
2022/03/21 13:31:50;;;;;;;;;;;;;;;;;;5049970;28;19920;-94
2022/03/21 13:34:16;;;;;;;;;;;;;;;;;;5063697;28;19974;-93
2022/03/21 13:36:44;;;;;;;;;;;;;;;;;;5063762;28;19920;-90
2022/03/21 13:39:11;;;;;;;;;;;;;;;;;;5062501;28;19927;-88
2022/03/21 13:41:37;;;;;;;;;;;;;;;;;;5063014;28;19920;-93
2022/03/21 13:44:03;;;;;;;;;;;;;;;;;;5063165;28;19933;-89
2022/03/21 13:46:30;;;;;;;;;;;;;;;;;;5052449;28;19929;-89
2022/03/21 13:48:56;;;;;;;;;;;;;;;;;;5063082;28;19921;-88
2022/03/21 13:51:22;;;;;;;;;;;;;;;;;;5063363;28;20301;-92
2022/03/21 13:53:48;;;;;;;;;;;;;;;;;;5064736;28;20301;-90
2022/03/21 13:56:15;;;;;;;;;;;;;;;;;;5064800;28;19963;-89
2022/03/21 13:58:41;;;;;;;;;;;;;;;;;;5064396;28;19984;-92
2022/03/21 14:01:07;;;;;;;;;;;;;;;;;;5064486;28;19950;-91
2022/03/21 14:03:34;;;;;;;;;;;;;;;;;;5056789;28;19925;-91
2022/03/21 14:06:00;;;;;;;;;;;;;;;;;;5044022;28;19944;-92
2022/03/21 14:08:26;;;;;;;;;;;;;;;;;;5061281;28;20602;-94
2022/03/21 14:10:52;;;;;;;;;;;;;;;;;;5062691;28;19920;-93
2022/03/21 14:13:19;;;;;;;;;;;;;;;;;;5062867;28;19951;-91
2022/03/21 14:15:45;;;;;;;;;;;;;;;;;;5063616;28;19964;-91
2022/03/21 14:18:12;;;;;;;;;;;;;;;;;;5062586;28;19966;-92
2022/03/21 14:20:38;;;;;;;;;;;;;;;;;;5059477;28;19991;-91
2022/03/21 14:23:04;;;;;;;;;;;;;;;;;;5062019;28;19929;-92
2022/03/21 14:28:14;;;;;;;;;;;;;;;;;;5062808;28;19950;-94
2022/03/21 14:30:40;;;;;;;;;;;;;;;;;;5061820;28;20699;-89
2022/03/21 14:33:07;;;;;;;;;;;;;;;;;;5063362;28;19943;-93
2022/03/21 14:35:33;;;;;;;;;;;;;;;;;;5061165;28;19924;-92
2022/03/21 14:37:59;;;;;;;;;;;;;;;;;;5061800;28;19924;-91
2022/03/21 14:40:25;;;;;;;;;;;;;;;;;;5052280;28;19943;-90
2022/03/21 14:42:51;;;;;;;;;;;;;;;;;;5053089;28;19920;-91
2022/03/21 14:45:18;;;;;;;;;;;;;;;;;;5062023;28;20275;-92
2022/03/21 14:47:44;;;;;;;;;;;;;;;;;;5061300;28;20387;-90
2022/03/21 14:50:10;;;;;;;;;;;;;;;;;;5063502;28;20358;-91
2022/03/21 14:52:36;;;;;;;;;;;;;;;;;;5061693;28;20401;-92
2022/03/21 14:55:03;;;;;;;;;;;;;;;;;;5061669;28;20136;-90
2022/03/21 14:57:29;;;;;;;;;;;;;;;;;;5061862;28;19921;-93
2022/03/21 14:59:56;;;;;;;;;;;;;;;;;;5061650;28;19928;-93
2022/03/21 15:02:22;;;;;;;;;;;;;;;;;;5062741;28;19925;-93
2022/03/21 15:04:49;;;;;;;;;;;;;;;;;;5064034;28;19932;-93
2022/03/21 15:07:15;;;;;;;;;;;;;;;;;;5066618;28;19920;-93
2022/03/21 15:12:22;;;;;;;;;;;;;;;;;;5070219;28;20295;-96
2022/03/21 15:14:50;;;;;;;;;;;;;;;;;;5083251;28;20356;-95
2022/03/21 15:17:16;;;;;;;;;;;;;;;;;;5080688;28;20348;-90
2022/03/21 15:19:42;;;;;;;;;;;;;;;;;;5082295;28;20349;-93
2022/03/21 15:22:10;;;;;;;;;;;;;;;;;;5082408;28;20150;-95
2022/03/21 15:24:36;;;;;;;;;;;;;;;;;;5082579;28;19920;-94
2022/03/21 15:27:02;;;;;;;;;;;;;;;;;;5081608;28;19943;-94
2022/03/21 15:29:28;;;;;;;;;;;;;;;;;;5082570;28;20153;-94
2022/03/21 15:31:54;;;;;;;;;;;;;;;;;;5071076;28;19929;-94
2022/03/21 15:34:21;;;;;;;;;;;;;;;;;;5059599;28;19920;-95
2022/03/21 15:42:15;;;;;;;;;;;;;;;;;;5048221;28;19992;-92
2022/03/21 15:44:41;;;;;;;;;;;;;;;;;;5065027;28;20369;-88
2022/03/21 15:47:08;;;;;;;;;;;;;;;;;;5065220;28;19924;-91
2022/03/21 15:49:34;;;;;;;;;;;;;;;;;;5065655;28;19943;-89
2022/03/21 15:52:00;;;;;;;;;;;;;;;;;;5053219;28;19921;-90
2022/03/21 15:54:27;;;;;;;;;;;;;;;;;;5058467;28;19921;-92
2022/03/21 15:56:54;;;;;;;;;;;;;;;;;;5059308;28;19921;-92
2022/03/21 15:59:20;;;;;;;;;;;;;;;;;;5058851;28;19921;-93
2022/03/21 16:01:47;;;;;;;;;;;;;;;;;;5063219;28;20282;-88
2022/03/21 16:04:14;;;;;;;;;;;;;;;;;;5059779;28;19970;-91
2022/03/21 16:06:40;;;;;;;;;;;;;;;;;;5060882;28;19920;-90
2022/03/21 16:09:07;;;;;;;;;;;;;;;;;;5043902;28;19925;-94
2022/03/21 16:11:33;;;;;;;;;;;;;;;;;;5039715;28;20376;-92
2022/03/21 16:14:00;;;;;;;;;;;;;;;;;;5057941;28;20465;-92
2022/03/21 16:16:26;;;;;;;;;;;;;;;;;;5056843;28;20012;-91
2022/03/21 16:18:52;;;;;;;;;;;;;;;;;;5063581;28;19924;-95
2022/03/21 16:21:19;;;;;;;;;;;;;;;;;;5055647;28;19928;-93
2022/03/21 16:23:46;;;;;;;;;;;;;;;;;;5077806;28;19946;-95
2022/03/21 16:26:12;;;;;;;;;;;;;;;;;;5086756;28;20272;-94
2022/03/21 16:28:38;;;;;;;;;;;;;;;;;;5068856;28;20815;-93
2022/03/21 16:31:05;;;;;;;;;;;;;;;;;;5066797;28;20750;-95
2022/03/21 16:33:31;;;;;;;;;;;;;;;;;;5077493;28;20406;-94
2022/03/21 16:35:57;;;;;;;;;;;;;;;;;;5086888;28;20352;-92
2022/03/21 16:38:24;;;;;;;;;;;;;;;;;;5083587;28;20399;-91
2022/03/21 16:40:50;;;;;;;;;;;;;;;;;;5081605;28;20349;-95
2022/03/21 16:43:16;;;;;;;;;;;;;;;;;;5081040;28;20345;-94
2022/03/21 16:45:43;;;;;;;;;;;;;;;;;;5081623;28;20399;-94
2022/03/21 16:48:10;;;;;;;;;;;;;;;;;;5076464;28;20352;-94
2022/03/21 16:50:36;;;;;;;;;;;;;;;;;;5082836;28;20408;-92
2022/03/21 16:53:03;;;;;;;;;;;;;;;;;;5081805;28;20349;-92